sensor_id;sensor_type;location;lat;lon;timestamp;pressure;altitude;pressure_sealevel;temperature;humidity
26376;BME280;30544;42.196;24.336;2024-01-25T00:01:02;99543.22;;;6.20;60.79
26376;BME280;30544;42.196;24.336;2024-01-25T00:03:28;99534.56;;;6.10;61.31
26376;BME280;30544;42.196;24.336;2024-01-25T00:05:55;99537.75;;;6.07;61.05
26376;BME280;30544;42.196;24.336;2024-01-25T00:08:23;99537.50;;;6.02;61.36
26376;BME280;30544;42.196;24.336;2024-01-25T00:10:49;99527.75;;;5.99;61.77
26376;BME280;30544;42.196;24.336;2024-01-25T00:13:16;99528.41;;;5.95;61.81
26376;BME280;30544;42.196;24.336;2024-01-25T00:15:42;99529.25;;;5.95;61.22
26376;BME280;30544;42.196;24.336;2024-01-25T00:18:09;99543.22;;;5.94;61.31
26376;BME280;30544;42.196;24.336;2024-01-25T00:20:35;99533.47;;;5.98;61.45
26376;BME280;30544;42.196;24.336;2024-01-25T00:23:02;99531.81;;;5.90;61.35
26376;BME280;30544;42.196;24.336;2024-01-25T00:25:30;99544.03;;;5.88;61.87
26376;BME280;30544;42.196;24.336;2024-01-25T00:27:56;99541.06;;;5.83;62.05
26376;BME280;30544;42.196;24.336;2024-01-25T00:30:23;99551.19;;;5.56;62.32
26376;BME280;30544;42.196;24.336;2024-01-25T00:32:49;99534.28;;;5.72;62.11
26376;BME280;30544;42.196;24.336;2024-01-25T00:35:16;99532.56;;;5.71;62.48
26376;BME280;30544;42.196;24.336;2024-01-25T00:37:43;99542.09;;;5.62;62.57
26376;BME280;30544;42.196;24.336;2024-01-25T00:40:10;99541.03;;;5.56;62.80
26376;BME280;30544;42.196;24.336;2024-01-25T00:42:41;99554.78;;;5.56;62.98
26376;BME280;30544;42.196;24.336;2024-01-25T00:45:08;99565.56;;;5.64;62.65
26376;BME280;30544;42.196;24.336;2024-01-25T00:47:35;99568.53;;;5.69;62.57
26376;BME280;30544;42.196;24.336;2024-01-25T00:50:03;99573.84;;;5.71;62.31
26376;BME280;30544;42.196;24.336;2024-01-25T00:52:29;99563.09;;;5.83;62.18
26376;BME280;30544;42.196;24.336;2024-01-25T00:54:56;99537.47;;;5.89;62.13
26376;BME280;30544;42.196;24.336;2024-01-25T00:57:23;99500.84;;;5.88;61.75
26376;BME280;30544;42.196;24.336;2024-01-25T00:59:51;99491.97;;;5.93;61.56
26376;BME280;30544;42.196;24.336;2024-01-25T01:02:18;99497.06;;;5.96;60.80
26376;BME280;30544;42.196;24.336;2024-01-25T01:04:46;99493.47;;;5.95;60.95
26376;BME280;30544;42.196;24.336;2024-01-25T01:07:13;99491.97;;;5.93;60.70
26376;BME280;30544;42.196;24.336;2024-01-25T01:09:40;99481.81;;;5.93;60.28
26376;BME280;30544;42.196;24.336;2024-01-25T01:12:06;99488.81;;;5.96;60.16
26376;BME280;30544;42.196;24.336;2024-01-25T01:14:33;99501.94;;;5.94;59.96
26376;BME280;30544;42.196;24.336;2024-01-25T01:17:03;99504.06;;;5.92;59.94
26376;BME280;30544;42.196;24.336;2024-01-25T01:19:30;99497.22;;;5.88;60.10
26376;BME280;30544;42.196;24.336;2024-01-25T01:21:57;99487.94;;;5.89;59.98
26376;BME280;30544;42.196;24.336;2024-01-25T01:24:23;99477.09;;;5.87;59.80
26376;BME280;30544;42.196;24.336;2024-01-25T01:26:50;99474.56;;;5.86;59.86
26376;BME280;30544;42.196;24.336;2024-01-25T01:29:16;99465.50;;;5.92;59.76
26376;BME280;30544;42.196;24.336;2024-01-25T01:31:43;99460.19;;;5.97;59.72
26376;BME280;30544;42.196;24.336;2024-01-25T01:34:11;99452.59;;;5.92;59.97
26376;BME280;30544;42.196;24.336;2024-01-25T01:36:38;99449.78;;;5.86;60.80
26376;BME280;30544;42.196;24.336;2024-01-25T01:39:05;99442.84;;;5.90;60.85
26376;BME280;30544;42.196;24.336;2024-01-25T01:41:32;99437.72;;;5.87;61.41
26376;BME280;30544;42.196;24.336;2024-01-25T01:43:58;99431.78;;;5.83;60.89
26376;BME280;30544;42.196;24.336;2024-01-25T01:46:28;99438.16;;;5.77;60.61
26376;BME280;30544;42.196;24.336;2024-01-25T01:48:58;99437.50;;;5.68;61.56
26376;BME280;30544;42.196;24.336;2024-01-25T01:51:26;99441.94;;;5.69;61.48
26376;BME280;30544;42.196;24.336;2024-01-25T01:53:53;99436.88;;;5.66;61.87
26376;BME280;30544;42.196;24.336;2024-01-25T01:56:20;99435.59;;;5.62;62.01
26376;BME280;30544;42.196;24.336;2024-01-25T01:58:46;99432.66;;;5.57;62.28
26376;BME280;30544;42.196;24.336;2024-01-25T02:01:14;99426.69;;;5.47;62.06
26376;BME280;30544;42.196;24.336;2024-01-25T02:03:40;99429.88;;;5.44;62.37
26376;BME280;30544;42.196;24.336;2024-01-25T02:06:07;99428.59;;;5.40;62.45
26376;BME280;30544;42.196;24.336;2024-01-25T02:08:35;99418.22;;;5.35;63.26
26376;BME280;30544;42.196;24.336;2024-01-25T02:11:01;99410.16;;;5.34;63.39
26376;BME280;30544;42.196;24.336;2024-01-25T02:13:28;99404.88;;;5.32;63.40
26376;BME280;30544;42.196;24.336;2024-01-25T02:15:54;99393.47;;;5.29;63.35
26376;BME280;30544;42.196;24.336;2024-01-25T02:18:21;99399.81;;;5.29;63.61
26376;BME280;30544;42.196;24.336;2024-01-25T02:20:48;99396.22;;;5.29;63.44
26376;BME280;30544;42.196;24.336;2024-01-25T02:23:16;99391.97;;;5.26;63.82
26376;BME280;30544;42.196;24.336;2024-01-25T02:25:42;99397.06;;;5.23;64.31
26376;BME280;30544;42.196;24.336;2024-01-25T02:28:09;99396.59;;;5.12;65.06
26376;BME280;30544;42.196;24.336;2024-01-25T02:30:35;99389.63;;;5.17;64.44
26376;BME280;30544;42.196;24.336;2024-01-25T02:33:02;99384.31;;;5.15;64.16
26376;BME280;30544;42.196;24.336;2024-01-25T02:35:28;99377.78;;;5.09;64.88
26376;BME280;30544;42.196;24.336;2024-01-25T02:37:55;99386.44;;;5.06;64.86
26376;BME280;30544;42.196;24.336;2024-01-25T02:40:23;99369.31;;;5.04;65.49
26376;BME280;30544;42.196;24.336;2024-01-25T02:42:49;99371.41;;;5.02;65.90
26376;BME280;30544;42.196;24.336;2024-01-25T02:45:16;99376.50;;;5.05;65.99
26376;BME280;30544;42.196;24.336;2024-01-25T02:47:42;99371.84;;;5.06;65.21
26376;BME280;30544;42.196;24.336;2024-01-25T02:50:09;99362.97;;;5.04;66.03
26376;BME280;30544;42.196;24.336;2024-01-25T02:52:35;99366.97;;;5.01;66.72
26376;BME280;30544;42.196;24.336;2024-01-25T02:55:02;99352.16;;;5.02;66.23
26376;BME280;30544;42.196;24.336;2024-01-25T02:57:32;99358.09;;;5.06;66.23
26376;BME280;30544;42.196;24.336;2024-01-25T02:59:58;99353.44;;;5.06;66.29
26376;BME280;30544;42.196;24.336;2024-01-25T03:02:25;99352.81;;;5.11;66.71
26376;BME280;30544;42.196;24.336;2024-01-25T03:04:51;99358.94;;;5.13;66.97
26376;BME280;30544;42.196;24.336;2024-01-25T03:07:18;99364.66;;;5.18;66.60
26376;BME280;30544;42.196;24.336;2024-01-25T03:09:44;99365.97;;;5.22;67.08
26376;BME280;30544;42.196;24.336;2024-01-25T03:12:11;99350.94;;;5.25;66.70
26376;BME280;30544;42.196;24.336;2024-01-25T03:14:39;99346.28;;;5.25;66.95
26376;BME280;30544;42.196;24.336;2024-01-25T03:17:05;99340.34;;;5.28;66.87
26376;BME280;30544;42.196;24.336;2024-01-25T03:19:32;99344.16;;;5.34;66.74
26376;BME280;30544;42.196;24.336;2024-01-25T03:21:59;99341.63;;;5.39;66.88
26376;BME280;30544;42.196;24.336;2024-01-25T03:24:26;99335.91;;;5.47;67.22
26376;BME280;30544;42.196;24.336;2024-01-25T03:26:53;99314.31;;;5.51;67.16
26376;BME280;30544;42.196;24.336;2024-01-25T03:29:19;99316.22;;;5.57;66.99
26376;BME280;30544;42.196;24.336;2024-01-25T03:31:47;99342.03;;;5.62;66.98
26376;BME280;30544;42.196;24.336;2024-01-25T03:34:15;99342.03;;;5.76;67.28
26376;BME280;30544;42.196;24.336;2024-01-25T03:36:41;99336.28;;;5.84;66.66
26376;BME280;30544;42.196;24.336;2024-01-25T03:39:08;99350.72;;;5.92;66.76
26376;BME280;30544;42.196;24.336;2024-01-25T03:41:34;99342.84;;;6.02;66.66
26376;BME280;30544;42.196;24.336;2024-01-25T03:44:01;99328.84;;;6.11;66.78
26376;BME280;30544;42.196;24.336;2024-01-25T03:46:27;99339.84;;;6.17;66.60
26376;BME280;30544;42.196;24.336;2024-01-25T03:48:55;99329.84;;;6.29;66.81
26376;BME280;30544;42.196;24.336;2024-01-25T03:51:22;99315.88;;;6.69;67.28
26376;BME280;30544;42.196;24.336;2024-01-25T03:53:49;99316.72;;;7.08;66.21
26376;BME280;30544;42.196;24.336;2024-01-25T03:56:17;99330.66;;;7.44;65.59
26376;BME280;30544;42.196;24.336;2024-01-25T03:58:44;99323.88;;;7.90;64.75
26376;BME280;30544;42.196;24.336;2024-01-25T04:01:10;99325.13;;;8.31;63.88
26376;BME280;30544;42.196;24.336;2024-01-25T04:03:37;99330.41;;;8.69;62.15
26376;BME280;30544;42.196;24.336;2024-01-25T04:06:05;99316.00;;;8.97;62.16
26376;BME280;30544;42.196;24.336;2024-01-25T04:08:31;99329.22;;;9.37;60.97
26376;BME280;30544;42.196;24.336;2024-01-25T04:10:58;99340.22;;;9.67;60.04
26376;BME280;30544;42.196;24.336;2024-01-25T04:13:24;99331.94;;;9.78;58.49
26376;BME280;30544;42.196;24.336;2024-01-25T04:15:51;99347.34;;;9.98;58.25
26376;BME280;30544;42.196;24.336;2024-01-25T04:18:17;99349.50;;;10.19;57.44
26376;BME280;30544;42.196;24.336;2024-01-25T04:20:44;99348.31;;;10.38;56.59
26376;BME280;30544;42.196;24.336;2024-01-25T04:23:13;99343.69;;;10.55;56.25
26376;BME280;30544;42.196;24.336;2024-01-25T04:25:40;99340.75;;;10.74;55.57
26376;BME280;30544;42.196;24.336;2024-01-25T04:28:06;99332.75;;;10.89;55.54
26376;BME280;30544;42.196;24.336;2024-01-25T04:30:33;99334.53;;;10.95;55.29
26376;BME280;30544;42.196;24.336;2024-01-25T04:32:59;99297.16;;;11.14;55.15
26376;BME280;30544;42.196;24.336;2024-01-25T04:35:26;99271.94;;;11.16;54.39
26376;BME280;30544;42.196;24.336;2024-01-25T04:37:52;99257.28;;;11.21;54.69
26376;BME280;30544;42.196;24.336;2024-01-25T04:40:20;99299.50;;;11.23;54.99
26376;BME280;30544;42.196;24.336;2024-01-25T04:42:46;99319.53;;;11.25;54.64
26376;BME280;30544;42.196;24.336;2024-01-25T04:45:13;99326.72;;;11.54;53.98
26376;BME280;30544;42.196;24.336;2024-01-25T04:47:39;99332.53;;;11.53;54.31
26376;BME280;30544;42.196;24.336;2024-01-25T04:50:06;99330.94;;;11.57;54.19
26376;BME280;30544;42.196;24.336;2024-01-25T04:52:33;99318.41;;;11.54;54.90
26376;BME280;30544;42.196;24.336;2024-01-25T04:54:59;99320.78;;;11.62;54.21
26376;BME280;30544;42.196;24.336;2024-01-25T04:57:27;99310.84;;;11.66;55.11
26376;BME280;30544;42.196;24.336;2024-01-25T04:59:54;99319.56;;;11.58;55.02
26376;BME280;30544;42.196;24.336;2024-01-25T05:02:20;99323.81;;;11.78;54.76
26376;BME280;30544;42.196;24.336;2024-01-25T05:04:47;99315.97;;;11.91;54.67
26376;BME280;30544;42.196;24.336;2024-01-25T05:07:13;99312.34;;;11.91;54.07
26376;BME280;30544;42.196;24.336;2024-01-25T05:09:40;99320.81;;;11.79;54.41
26376;BME280;30544;42.196;24.336;2024-01-25T05:12:06;99333.41;;;11.70;54.58
26376;BME280;30544;42.196;24.336;2024-01-25T05:14:34;99332.84;;;11.85;54.42
26376;BME280;30544;42.196;24.336;2024-01-25T05:17:01;99335.41;;;11.74;54.69
26376;BME280;30544;42.196;24.336;2024-01-25T05:19:27;99323.41;;;11.86;53.95
26376;BME280;30544;42.196;24.336;2024-01-25T05:21:55;99295.63;;;11.86;54.43
26376;BME280;30544;42.196;24.336;2024-01-25T05:24:21;99281.19;;;11.72;54.62
26376;BME280;30544;42.196;24.336;2024-01-25T05:26:48;99280.28;;;11.66;54.53
26376;BME280;30544;42.196;24.336;2024-01-25T05:29:14;99284.56;;;11.57;54.98
26376;BME280;30544;42.196;24.336;2024-01-25T05:31:43;99279.00;;;11.57;55.38
26376;BME280;30544;42.196;24.336;2024-01-25T05:34:09;99301.06;;;11.47;56.30
26376;BME280;30544;42.196;24.336;2024-01-25T05:36:35;99328.56;;;11.32;56.75
26376;BME280;30544;42.196;24.336;2024-01-25T05:39:02;99337.19;;;11.47;56.41
26376;BME280;30544;42.196;24.336;2024-01-25T05:41:31;99332.53;;;11.36;56.45
26376;BME280;30544;42.196;24.336;2024-01-25T05:43:58;99332.88;;;11.56;56.12
26376;BME280;30544;42.196;24.336;2024-01-25T05:46:24;99354.63;;;11.59;56.33
26376;BME280;30544;42.196;24.336;2024-01-25T05:48:52;99358.63;;;11.52;56.13
26376;BME280;30544;42.196;24.336;2024-01-25T05:51:19;99365.28;;;11.51;56.25
26376;BME280;30544;42.196;24.336;2024-01-25T05:53:45;99378.16;;;11.57;55.68
26376;BME280;30544;42.196;24.336;2024-01-25T05:56:12;99389.84;;;11.42;56.58
26376;BME280;30544;42.196;24.336;2024-01-25T05:58:38;99398.78;;;11.44;55.87
26376;BME280;30544;42.196;24.336;2024-01-25T06:01:05;99400.56;;;11.50;55.66
26376;BME280;30544;42.196;24.336;2024-01-25T06:03:31;99405.56;;;11.65;55.42
26376;BME280;30544;42.196;24.336;2024-01-25T06:05:59;99399.06;;;11.59;55.76
26376;BME280;30544;42.196;24.336;2024-01-25T06:08:26;99401.22;;;11.57;55.52
26376;BME280;30544;42.196;24.336;2024-01-25T06:10:52;99398.94;;;11.54;56.14
26376;BME280;30544;42.196;24.336;2024-01-25T06:13:19;99404.75;;;11.53;55.31
26376;BME280;30544;42.196;24.336;2024-01-25T06:15:45;99422.19;;;11.48;55.73
26376;BME280;30544;42.196;24.336;2024-01-25T06:18:12;99428.41;;;11.55;55.22
26376;BME280;30544;42.196;24.336;2024-01-25T06:20:38;99434.56;;;11.57;54.86
26376;BME280;30544;42.196;24.336;2024-01-25T06:23:06;99457.16;;;11.61;53.98
26376;BME280;30544;42.196;24.336;2024-01-25T06:25:32;99448.81;;;11.61;53.25
26376;BME280;30544;42.196;24.336;2024-01-25T06:28:00;99451.59;;;11.61;53.21
26376;BME280;30544;42.196;24.336;2024-01-25T06:30:27;99446.38;;;11.64;52.85
26376;BME280;30544;42.196;24.336;2024-01-25T06:32:53;99464.22;;;11.68;52.53
26376;BME280;30544;42.196;24.336;2024-01-25T06:35:20;99448.22;;;11.75;51.75
26376;BME280;30544;42.196;24.336;2024-01-25T06:37:46;99434.59;;;11.74;51.79
26376;BME280;30544;42.196;24.336;2024-01-25T06:40:14;99447.56;;;11.68;51.47
26376;BME280;30544;42.196;24.336;2024-01-25T06:42:41;99443.34;;;11.66;51.26
26376;BME280;30544;42.196;24.336;2024-01-25T06:45:10;99447.38;;;11.75;51.21
26376;BME280;30544;42.196;24.336;2024-01-25T06:47:36;99452.34;;;11.73;50.99
26376;BME280;30544;42.196;24.336;2024-01-25T06:50:03;99446.28;;;11.88;50.96
26376;BME280;30544;42.196;24.336;2024-01-25T06:52:29;99444.66;;;11.92;50.71
26376;BME280;30544;42.196;24.336;2024-01-25T06:54:56;99454.72;;;12.10;50.30
26376;BME280;30544;42.196;24.336;2024-01-25T06:57:24;99449.06;;;12.04;50.25
26376;BME280;30544;42.196;24.336;2024-01-25T06:59:50;99452.34;;;12.01;50.30
26376;BME280;30544;42.196;24.336;2024-01-25T07:02:17;99452.88;;;12.15;50.24
26376;BME280;30544;42.196;24.336;2024-01-25T07:04:43;99468.38;;;12.11;49.81
26376;BME280;30544;42.196;24.336;2024-01-25T07:07:10;99471.75;;;12.13;49.76
26376;BME280;30544;42.196;24.336;2024-01-25T07:09:36;99478.81;;;12.04;50.07
26376;BME280;30544;42.196;24.336;2024-01-25T07:12:03;99483.72;;;12.30;49.35
26376;BME280;30544;42.196;24.336;2024-01-25T07:14:31;99472.84;;;12.29;49.68
26376;BME280;30544;42.196;24.336;2024-01-25T07:16:57;99474.28;;;12.31;48.96
26376;BME280;30544;42.196;24.336;2024-01-25T07:19:24;99470.91;;;12.29;48.99
26376;BME280;30544;42.196;24.336;2024-01-25T07:21:50;99458.00;;;12.40;48.71
26376;BME280;30544;42.196;24.336;2024-01-25T07:24:17;99468.72;;;12.48;48.71
26376;BME280;30544;42.196;24.336;2024-01-25T07:26:44;99474.28;;;12.48;48.54
26376;BME280;30544;42.196;24.336;2024-01-25T07:29:10;99464.41;;;12.41;48.58
26376;BME280;30544;42.196;24.336;2024-01-25T07:31:38;99473.84;;;12.40;48.38
26376;BME280;30544;42.196;24.336;2024-01-25T07:34:05;99487.75;;;12.40;47.95
26376;BME280;30544;42.196;24.336;2024-01-25T07:36:32;99484.38;;;12.38;47.76
26376;BME280;30544;42.196;24.336;2024-01-25T07:38:58;99488.09;;;12.60;48.23
26376;BME280;30544;42.196;24.336;2024-01-25T07:41:24;99467.84;;;12.64;48.24
26376;BME280;30544;42.196;24.336;2024-01-25T07:43:51;99465.13;;;12.70;47.53
26376;BME280;30544;42.196;24.336;2024-01-25T07:46:20;99474.16;;;12.77;47.63
26376;BME280;30544;42.196;24.336;2024-01-25T07:48:48;99475.06;;;12.82;46.96
26376;BME280;30544;42.196;24.336;2024-01-25T07:51:14;99473.72;;;12.85;46.58
26376;BME280;30544;42.196;24.336;2024-01-25T07:53:41;99460.88;;;12.84;46.54
26376;BME280;30544;42.196;24.336;2024-01-25T07:56:07;99478.22;;;12.91;46.56
26376;BME280;30544;42.196;24.336;2024-01-25T07:58:35;99469.97;;;12.96;46.37
26376;BME280;30544;42.196;24.336;2024-01-25T08:01:03;99470.41;;;13.10;46.32
26376;BME280;30544;42.196;24.336;2024-01-25T08:03:30;99472.31;;;13.04;45.64
26376;BME280;30544;42.196;24.336;2024-01-25T08:05:58;99466.88;;;13.14;45.30
26376;BME280;30544;42.196;24.336;2024-01-25T08:08:24;99458.13;;;13.06;45.28
26376;BME280;30544;42.196;24.336;2024-01-25T08:10:51;99465.69;;;13.27;44.90
26376;BME280;30544;42.196;24.336;2024-01-25T08:13:17;99443.91;;;13.24;45.10
26376;BME280;30544;42.196;24.336;2024-01-25T08:15:44;99449.47;;;13.24;44.47
26376;BME280;30544;42.196;24.336;2024-01-25T08:18:10;99433.88;;;13.45;44.98
26376;BME280;30544;42.196;24.336;2024-01-25T08:20:37;99419.31;;;13.43;44.53
26376;BME280;30544;42.196;24.336;2024-01-25T08:23:06;99425.13;;;13.36;44.23
26376;BME280;30544;42.196;24.336;2024-01-25T08:25:34;99426.97;;;13.52;43.91
26376;BME280;30544;42.196;24.336;2024-01-25T08:28:00;99414.94;;;13.25;43.36
26376;BME280;30544;42.196;24.336;2024-01-25T08:30:27;99416.19;;;13.34;42.85
26376;BME280;30544;42.196;24.336;2024-01-25T08:32:53;99406.75;;;13.40;42.09
26376;BME280;30544;42.196;24.336;2024-01-25T08:35:20;99409.78;;;13.61;42.17
26376;BME280;30544;42.196;24.336;2024-01-25T08:37:47;99406.09;;;13.55;42.62
26376;BME280;30544;42.196;24.336;2024-01-25T08:40:16;99407.88;;;13.39;42.17
26376;BME280;30544;42.196;24.336;2024-01-25T08:42:42;99407.34;;;13.69;42.10
26376;BME280;30544;42.196;24.336;2024-01-25T08:45:09;99418.25;;;13.71;42.74
26376;BME280;30544;42.196;24.336;2024-01-25T08:47:35;99403.16;;;13.67;41.92
26376;BME280;30544;42.196;24.336;2024-01-25T08:50:02;99415.88;;;13.84;41.69
26376;BME280;30544;42.196;24.336;2024-01-25T08:52:30;99422.56;;;13.83;41.91
26376;BME280;30544;42.196;24.336;2024-01-25T08:54:57;99426.66;;;14.08;41.42
26376;BME280;30544;42.196;24.336;2024-01-25T08:57:25;99431.41;;;14.07;40.62
26376;BME280;30544;42.196;24.336;2024-01-25T08:59:51;99436.50;;;14.15;41.46
26376;BME280;30544;42.196;24.336;2024-01-25T09:02:19;99445.91;;;14.09;40.66
26376;BME280;30544;42.196;24.336;2024-01-25T09:04:51;99444.06;;;13.88;40.75
26376;BME280;30544;42.196;24.336;2024-01-25T09:07:18;99463.19;;;14.06;41.27
26376;BME280;30544;42.196;24.336;2024-01-25T09:09:45;99456.31;;;14.14;40.78
26376;BME280;30544;42.196;24.336;2024-01-25T09:12:11;99463.63;;;14.25;40.59
26376;BME280;30544;42.196;24.336;2024-01-25T09:14:40;99459.88;;;14.09;40.77
26376;BME280;30544;42.196;24.336;2024-01-25T09:17:07;99475.88;;;14.19;40.38
26376;BME280;30544;42.196;24.336;2024-01-25T09:19:34;99472.13;;;14.08;40.39
26376;BME280;30544;42.196;24.336;2024-01-25T09:22:01;99476.13;;;14.18;39.98
26376;BME280;30544;42.196;24.336;2024-01-25T09:24:29;99496.75;;;13.90;41.31
26376;BME280;30544;42.196;24.336;2024-01-25T09:26:56;99473.81;;;14.09;41.18
26376;BME280;30544;42.196;24.336;2024-01-25T09:29:24;99474.53;;;14.27;40.72
26376;BME280;30544;42.196;24.336;2024-01-25T09:31:52;99472.63;;;14.00;39.85
26376;BME280;30544;42.196;24.336;2024-01-25T09:34:18;99489.50;;;13.62;40.70
26376;BME280;30544;42.196;24.336;2024-01-25T09:36:45;99476.19;;;13.69;40.70
26376;BME280;30544;42.196;24.336;2024-01-25T09:39:12;99480.81;;;13.85;40.52
26376;BME280;30544;42.196;24.336;2024-01-25T09:41:39;99474.03;;;13.76;41.39
26376;BME280;30544;42.196;24.336;2024-01-25T09:44:06;99481.72;;;13.91;41.27
26376;BME280;30544;42.196;24.336;2024-01-25T09:46:34;99471.66;;;13.90;41.35
26376;BME280;30544;42.196;24.336;2024-01-25T09:49:03;99483.09;;;13.88;41.32
26376;BME280;30544;42.196;24.336;2024-01-25T09:51:31;99479.19;;;13.62;41.11
26376;BME280;30544;42.196;24.336;2024-01-25T09:53:59;99485.72;;;13.73;41.99
26376;BME280;30544;42.196;24.336;2024-01-25T09:56:27;99470.22;;;13.60;41.92
26376;BME280;30544;42.196;24.336;2024-01-25T09:58:57;99482.25;;;13.61;41.17
26376;BME280;30544;42.196;24.336;2024-01-25T10:01:24;99479.59;;;13.76;40.76
26376;BME280;30544;42.196;24.336;2024-01-25T10:03:50;99476.13;;;13.91;40.52
26376;BME280;30544;42.196;24.336;2024-01-25T10:06:18;99465.31;;;13.94;40.59
26376;BME280;30544;42.196;24.336;2024-01-25T10:08:45;99467.75;;;14.18;40.34
26376;BME280;30544;42.196;24.336;2024-01-25T10:11:12;99457.06;;;14.09;40.80
26376;BME280;30544;42.196;24.336;2024-01-25T10:13:42;99458.88;;;14.26;40.09
26376;BME280;30544;42.196;24.336;2024-01-25T10:16:10;99446.75;;;14.10;40.17
26376;BME280;30544;42.196;24.336;2024-01-25T10:18:38;99423.16;;;14.23;40.29
26376;BME280;30544;42.196;24.336;2024-01-25T10:21:06;99417.72;;;14.43;40.42
26376;BME280;30544;42.196;24.336;2024-01-25T10:23:34;99434.13;;;14.29;39.98
26376;BME280;30544;42.196;24.336;2024-01-25T10:26:00;99419.78;;;14.48;40.02
26376;BME280;30544;42.196;24.336;2024-01-25T10:28:27;99412.16;;;14.43;40.43
26376;BME280;30544;42.196;24.336;2024-01-25T10:30:55;99405.59;;;14.22;40.37
26376;BME280;30544;42.196;24.336;2024-01-25T10:33:23;99402.47;;;14.13;40.04
26376;BME280;30544;42.196;24.336;2024-01-25T10:35:50;99417.31;;;14.24;39.52
26376;BME280;30544;42.196;24.336;2024-01-25T10:38:20;99405.56;;;14.17;39.36
26376;BME280;30544;42.196;24.336;2024-01-25T10:40:48;99396.81;;;14.08;39.41
26376;BME280;30544;42.196;24.336;2024-01-25T10:43:15;99392.34;;;14.07;40.48
26376;BME280;30544;42.196;24.336;2024-01-25T10:45:42;99397.53;;;13.94;40.41
26376;BME280;30544;42.196;24.336;2024-01-25T10:48:08;99377.16;;;13.88;40.92
26376;BME280;30544;42.196;24.336;2024-01-25T10:50:35;99394.38;;;13.80;40.59
26376;BME280;30544;42.196;24.336;2024-01-25T10:53:02;99386.75;;;13.70;41.05
26376;BME280;30544;42.196;24.336;2024-01-25T10:55:30;99372.28;;;14.10;41.21
26376;BME280;30544;42.196;24.336;2024-01-25T10:57:58;99367.88;;;14.14;41.47
26376;BME280;30544;42.196;24.336;2024-01-25T11:00:24;99369.00;;;14.13;41.44
26376;BME280;30544;42.196;24.336;2024-01-25T11:02:51;99350.47;;;14.39;41.11
26376;BME280;30544;42.196;24.336;2024-01-25T11:05:17;99364.84;;;13.84;41.41
26376;BME280;30544;42.196;24.336;2024-01-25T11:07:45;99361.94;;;14.06;40.87
26376;BME280;30544;42.196;24.336;2024-01-25T11:10:13;99375.88;;;14.01;41.22
26376;BME280;30544;42.196;24.336;2024-01-25T11:12:50;99354.38;;;13.96;40.60
26376;BME280;30544;42.196;24.336;2024-01-25T11:15:20;99356.38;;;13.74;40.99
26376;BME280;30544;42.196;24.336;2024-01-25T11:17:50;99364.97;;;13.67;40.46
26376;BME280;30544;42.196;24.336;2024-01-25T11:20:19;99350.88;;;13.79;41.25
26376;BME280;30544;42.196;24.336;2024-01-25T11:22:46;99341.44;;;13.85;42.35
26376;BME280;30544;42.196;24.336;2024-01-25T11:25:12;99354.84;;;13.88;41.99
26376;BME280;30544;42.196;24.336;2024-01-25T11:27:42;99338.09;;;13.83;41.20
26376;BME280;30544;42.196;24.336;2024-01-25T11:30:09;99349.31;;;13.93;39.91
26376;BME280;30544;42.196;24.336;2024-01-25T11:32:38;99347.88;;;13.91;40.43
26376;BME280;30544;42.196;24.336;2024-01-25T11:35:05;99354.66;;;13.68;40.13
26376;BME280;30544;42.196;24.336;2024-01-25T11:37:32;99340.34;;;13.86;40.68
26376;BME280;30544;42.196;24.336;2024-01-25T11:39:59;99337.22;;;14.14;41.63
26376;BME280;30544;42.196;24.336;2024-01-25T11:42:25;99342.44;;;14.06;41.25
26376;BME280;30544;42.196;24.336;2024-01-25T11:44:55;99361.00;;;13.90;41.04
26376;BME280;30544;42.196;24.336;2024-01-25T11:47:22;99342.56;;;13.84;41.12
26376;BME280;30544;42.196;24.336;2024-01-25T11:49:50;99379.38;;;13.86;40.89
26376;BME280;30544;42.196;24.336;2024-01-25T11:52:16;99354.44;;;14.06;40.71
26376;BME280;30544;42.196;24.336;2024-01-25T11:54:43;99341.13;;;14.19;39.40
26376;BME280;30544;42.196;24.336;2024-01-25T11:57:09;99359.06;;;14.28;40.32
26376;BME280;30544;42.196;24.336;2024-01-25T11:59:36;99352.59;;;14.22;40.33
26376;BME280;30544;42.196;24.336;2024-01-25T12:02:03;99342.53;;;14.21;39.65
26376;BME280;30544;42.196;24.336;2024-01-25T12:04:29;99351.31;;;14.40;39.56
26376;BME280;30544;42.196;24.336;2024-01-25T12:06:57;99354.31;;;14.28;39.43
26376;BME280;30544;42.196;24.336;2024-01-25T12:09:24;99357.31;;;14.22;38.43
26376;BME280;30544;42.196;24.336;2024-01-25T12:11:51;99358.81;;;14.34;38.17
26376;BME280;30544;42.196;24.336;2024-01-25T12:14:17;99355.69;;;14.26;39.08
26376;BME280;30544;42.196;24.336;2024-01-25T12:16:44;99350.56;;;14.50;39.00
26376;BME280;30544;42.196;24.336;2024-01-25T12:19:10;99348.59;;;14.45;38.17
26376;BME280;30544;42.196;24.336;2024-01-25T12:21:36;99354.84;;;14.25;37.98
26376;BME280;30544;42.196;24.336;2024-01-25T12:24:05;99343.19;;;14.33;38.53
26376;BME280;30544;42.196;24.336;2024-01-25T12:26:33;99346.81;;;14.34;38.78
26376;BME280;30544;42.196;24.336;2024-01-25T12:29:00;99343.41;;;14.27;38.12
26376;BME280;30544;42.196;24.336;2024-01-25T12:31:30;99345.44;;;13.94;37.40
26376;BME280;30544;42.196;24.336;2024-01-25T12:33:56;99348.28;;;14.04;37.15
26376;BME280;30544;42.196;24.336;2024-01-25T12:36:23;99346.75;;;14.24;36.99
26376;BME280;30544;42.196;24.336;2024-01-25T12:38:49;99357.69;;;14.30;37.53
26376;BME280;30544;42.196;24.336;2024-01-25T12:41:17;99343.28;;;14.43;37.53
26376;BME280;30544;42.196;24.336;2024-01-25T12:43:44;99358.25;;;14.32;37.40
26376;BME280;30544;42.196;24.336;2024-01-25T12:46:10;99346.94;;;14.49;38.22
26376;BME280;30544;42.196;24.336;2024-01-25T12:48:37;99344.59;;;14.36;38.09
26376;BME280;30544;42.196;24.336;2024-01-25T12:51:03;99340.91;;;14.67;37.69